sensor_id;sensor_type;location;lat;lon;timestamp;temperature;humidity
19870;DHT22;10097;50.862;4.696;2024-03-02T00:00:26;7.90;99.90
19870;DHT22;10097;50.862;4.696;2024-03-02T00:02:52;8.00;99.90
19870;DHT22;10097;50.862;4.696;2024-03-02T00:05:19;7.90;99.90
19870;DHT22;10097;50.862;4.696;2024-03-02T00:07:53;7.90;99.90
19870;DHT22;10097;50.862;4.696;2024-03-02T00:10:21;8.00;99.90
19870;DHT22;10097;50.862;4.696;2024-03-02T00:12:50;7.90;99.90
19870;DHT22;10097;50.862;4.696;2024-03-02T00:17:57;7.90;99.90
19870;DHT22;10097;50.862;4.696;2024-03-02T00:20:24;7.90;99.90
19870;DHT22;10097;50.862;4.696;2024-03-02T00:23:02;7.90;99.90
19870;DHT22;10097;50.862;4.696;2024-03-02T00:25:37;7.90;99.90
19870;DHT22;10097;50.862;4.696;2024-03-02T00:28:04;7.90;99.90
19870;DHT22;10097;50.862;4.696;2024-03-02T00:33:21;7.90;99.90
19870;DHT22;10097;50.862;4.696;2024-03-02T00:35:47;7.90;99.90
19870;DHT22;10097;50.862;4.696;2024-03-02T00:38:14;7.90;99.90
19870;DHT22;10097;50.862;4.696;2024-03-02T00:40:41;7.90;99.90
19870;DHT22;10097;50.862;4.696;2024-03-02T00:45:56;7.80;99.90
19870;DHT22;10097;50.862;4.696;2024-03-02T00:48:22;7.90;99.90
19870;DHT22;10097;50.862;4.696;2024-03-02T00:50:52;7.80;99.90
19870;DHT22;10097;50.862;4.696;2024-03-02T00:53:22;7.80;99.90
19870;DHT22;10097;50.862;4.696;2024-03-02T00:55:52;7.80;99.90
19870;DHT22;10097;50.862;4.696;2024-03-02T00:58:17;7.90;99.90
19870;DHT22;10097;50.862;4.696;2024-03-02T01:00:43;8.00;99.90
19870;DHT22;10097;50.862;4.696;2024-03-02T01:03:09;7.90;99.90
19870;DHT22;10097;50.862;4.696;2024-03-02T01:05:36;7.90;99.90
19870;DHT22;10097;50.862;4.696;2024-03-02T01:08:02;7.90;99.90
19870;DHT22;10097;50.862;4.696;2024-03-02T01:10:28;7.70;99.90
19870;DHT22;10097;50.862;4.696;2024-03-02T01:12:53;7.80;99.90
19870;DHT22;10097;50.862;4.696;2024-03-02T01:15:19;7.70;99.90
19870;DHT22;10097;50.862;4.696;2024-03-02T01:17:45;7.70;99.90
19870;DHT22;10097;50.862;4.696;2024-03-02T01:20:11;7.70;99.90
19870;DHT22;10097;50.862;4.696;2024-03-02T01:22:36;7.70;99.90
19870;DHT22;10097;50.862;4.696;2024-03-02T01:25:03;7.70;99.90
19870;DHT22;10097;50.862;4.696;2024-03-02T01:27:29;7.70;99.90
19870;DHT22;10097;50.862;4.696;2024-03-02T01:29:54;7.80;99.90
19870;DHT22;10097;50.862;4.696;2024-03-02T01:32:20;7.80;99.90
19870;DHT22;10097;50.862;4.696;2024-03-02T01:34:46;7.80;99.90
19870;DHT22;10097;50.862;4.696;2024-03-02T01:37:12;7.70;99.90
19870;DHT22;10097;50.862;4.696;2024-03-02T01:39:38;7.60;99.90
19870;DHT22;10097;50.862;4.696;2024-03-02T01:42:04;7.70;99.90
19870;DHT22;10097;50.862;4.696;2024-03-02T01:44:30;7.60;99.90
19870;DHT22;10097;50.862;4.696;2024-03-02T01:46:55;7.60;99.90
19870;DHT22;10097;50.862;4.696;2024-03-02T01:49:21;7.50;99.90
19870;DHT22;10097;50.862;4.696;2024-03-02T01:51:46;7.60;99.90
19870;DHT22;10097;50.862;4.696;2024-03-02T01:54:12;7.60;99.90
19870;DHT22;10097;50.862;4.696;2024-03-02T01:56:38;7.60;99.90
19870;DHT22;10097;50.862;4.696;2024-03-02T01:59:03;7.50;99.90
19870;DHT22;10097;50.862;4.696;2024-03-02T02:01:29;7.60;99.90
19870;DHT22;10097;50.862;4.696;2024-03-02T02:03:55;7.60;99.90
19870;DHT22;10097;50.862;4.696;2024-03-02T02:06:21;7.60;99.90
19870;DHT22;10097;50.862;4.696;2024-03-02T02:08:47;7.70;99.90
19870;DHT22;10097;50.862;4.696;2024-03-02T02:11:15;7.60;99.90
19870;DHT22;10097;50.862;4.696;2024-03-02T02:13:41;7.60;99.90
19870;DHT22;10097;50.862;4.696;2024-03-02T02:16:07;7.70;99.90
19870;DHT22;10097;50.862;4.696;2024-03-02T02:18:33;7.80;99.90
19870;DHT22;10097;50.862;4.696;2024-03-02T02:20:59;7.80;99.90
19870;DHT22;10097;50.862;4.696;2024-03-02T02:23:25;7.70;99.90
19870;DHT22;10097;50.862;4.696;2024-03-02T02:25:50;7.80;99.90
19870;DHT22;10097;50.862;4.696;2024-03-02T02:28:16;7.70;99.90
19870;DHT22;10097;50.862;4.696;2024-03-02T02:30:42;7.70;99.90
19870;DHT22;10097;50.862;4.696;2024-03-02T02:33:08;7.80;99.90
19870;DHT22;10097;50.862;4.696;2024-03-02T02:35:34;7.80;99.90
19870;DHT22;10097;50.862;4.696;2024-03-02T02:38:00;7.90;99.90
19870;DHT22;10097;50.862;4.696;2024-03-02T02:40:26;7.90;99.90
19870;DHT22;10097;50.862;4.696;2024-03-02T02:42:54;7.80;99.90
19870;DHT22;10097;50.862;4.696;2024-03-02T02:45:20;7.80;99.90
19870;DHT22;10097;50.862;4.696;2024-03-02T02:47:46;7.70;99.90
19870;DHT22;10097;50.862;4.696;2024-03-02T02:50:12;7.60;99.90
19870;DHT22;10097;50.862;4.696;2024-03-02T02:52:39;7.60;99.90
19870;DHT22;10097;50.862;4.696;2024-03-02T02:55:11;7.50;99.90
19870;DHT22;10097;50.862;4.696;2024-03-02T02:57:38;7.50;99.90
19870;DHT22;10097;50.862;4.696;2024-03-02T03:00:09;7.50;99.90
19870;DHT22;10097;50.862;4.696;2024-03-02T03:02:42;7.40;99.90
19870;DHT22;10097;50.862;4.696;2024-03-02T03:05:13;7.40;99.90
19870;DHT22;10097;50.862;4.696;2024-03-02T03:07:40;7.30;99.90
19870;DHT22;10097;50.862;4.696;2024-03-02T03:10:06;7.20;99.90
19870;DHT22;10097;50.862;4.696;2024-03-02T03:12:33;7.20;99.90
19870;DHT22;10097;50.862;4.696;2024-03-02T03:14:59;7.10;99.90
19870;DHT22;10097;50.862;4.696;2024-03-02T03:17:25;7.10;99.90
19870;DHT22;10097;50.862;4.696;2024-03-02T03:19:51;7.00;99.90
19870;DHT22;10097;50.862;4.696;2024-03-02T03:22:16;7.00;99.90
19870;DHT22;10097;50.862;4.696;2024-03-02T03:24:42;7.00;99.90
19870;DHT22;10097;50.862;4.696;2024-03-02T03:27:09;7.00;99.90
19870;DHT22;10097;50.862;4.696;2024-03-02T03:29:36;6.90;99.90
19870;DHT22;10097;50.862;4.696;2024-03-02T03:32:02;6.90;99.90
19870;DHT22;10097;50.862;4.696;2024-03-02T03:34:28;6.90;99.90
19870;DHT22;10097;50.862;4.696;2024-03-02T03:36:54;6.90;99.90
19870;DHT22;10097;50.862;4.696;2024-03-02T03:39:20;6.90;99.90
19870;DHT22;10097;50.862;4.696;2024-03-02T03:41:46;6.80;99.90
19870;DHT22;10097;50.862;4.696;2024-03-02T03:44:12;6.70;99.90
19870;DHT22;10097;50.862;4.696;2024-03-02T03:46:37;6.70;99.90
19870;DHT22;10097;50.862;4.696;2024-03-02T03:49:03;6.70;99.90
19870;DHT22;10097;50.862;4.696;2024-03-02T03:51:29;6.70;99.90
19870;DHT22;10097;50.862;4.696;2024-03-02T03:53:55;6.70;99.90
19870;DHT22;10097;50.862;4.696;2024-03-02T03:56:21;6.70;99.90
19870;DHT22;10097;50.862;4.696;2024-03-02T03:58:47;6.60;99.90
19870;DHT22;10097;50.862;4.696;2024-03-02T04:01:12;6.60;99.90
19870;DHT22;10097;50.862;4.696;2024-03-02T04:03:38;6.60;99.90
19870;DHT22;10097;50.862;4.696;2024-03-02T04:06:04;6.60;99.90
19870;DHT22;10097;50.862;4.696;2024-03-02T04:08:29;6.50;99.90
19870;DHT22;10097;50.862;4.696;2024-03-02T04:10:56;6.50;99.90
19870;DHT22;10097;50.862;4.696;2024-03-02T04:13:22;6.50;99.90
19870;DHT22;10097;50.862;4.696;2024-03-02T04:15:47;6.50;99.90
19870;DHT22;10097;50.862;4.696;2024-03-02T04:18:13;6.50;99.90
19870;DHT22;10097;50.862;4.696;2024-03-02T04:20:38;6.50;99.90
19870;DHT22;10097;50.862;4.696;2024-03-02T04:23:04;6.40;99.90
19870;DHT22;10097;50.862;4.696;2024-03-02T04:25:30;6.40;99.90
19870;DHT22;10097;50.862;4.696;2024-03-02T04:27:55;6.40;99.90
19870;DHT22;10097;50.862;4.696;2024-03-02T04:30:21;6.30;99.90
19870;DHT22;10097;50.862;4.696;2024-03-02T04:32:46;6.40;99.90
19870;DHT22;10097;50.862;4.696;2024-03-02T04:35:13;6.40;99.90
19870;DHT22;10097;50.862;4.696;2024-03-02T04:37:39;6.50;99.90
19870;DHT22;10097;50.862;4.696;2024-03-02T04:40:05;6.50;99.90
19870;DHT22;10097;50.862;4.696;2024-03-02T04:42:34;6.40;99.90
19870;DHT22;10097;50.862;4.696;2024-03-02T04:45:00;6.50;99.90
19870;DHT22;10097;50.862;4.696;2024-03-02T04:47:26;6.50;99.90
19870;DHT22;10097;50.862;4.696;2024-03-02T04:49:51;6.40;99.90
19870;DHT22;10097;50.862;4.696;2024-03-02T04:52:17;6.30;99.90
19870;DHT22;10097;50.862;4.696;2024-03-02T04:54:43;6.30;99.90
19870;DHT22;10097;50.862;4.696;2024-03-02T04:57:28;6.40;99.90
19870;DHT22;10097;50.862;4.696;2024-03-02T04:59:54;6.40;99.90
19870;DHT22;10097;50.862;4.696;2024-03-02T05:02:20;6.40;99.90
19870;DHT22;10097;50.862;4.696;2024-03-02T05:04:45;6.40;99.90
19870;DHT22;10097;50.862;4.696;2024-03-02T05:07:11;6.40;99.90
19870;DHT22;10097;50.862;4.696;2024-03-02T05:09:37;6.40;99.90
19870;DHT22;10097;50.862;4.696;2024-03-02T05:12:02;6.40;99.90
19870;DHT22;10097;50.862;4.696;2024-03-02T05:14:46;6.40;99.90
19870;DHT22;10097;50.862;4.696;2024-03-02T05:17:12;6.30;99.90
19870;DHT22;10097;50.862;4.696;2024-03-02T05:19:38;6.30;99.90
19870;DHT22;10097;50.862;4.696;2024-03-02T05:22:04;6.30;99.90
19870;DHT22;10097;50.862;4.696;2024-03-02T05:24:30;6.30;99.90
19870;DHT22;10097;50.862;4.696;2024-03-02T05:26:55;6.40;99.90
19870;DHT22;10097;50.862;4.696;2024-03-02T05:29:21;6.30;99.90
19870;DHT22;10097;50.862;4.696;2024-03-02T05:31:47;6.40;99.90
19870;DHT22;10097;50.862;4.696;2024-03-02T05:34:13;6.30;99.90
19870;DHT22;10097;50.862;4.696;2024-03-02T05:36:38;6.30;99.90
19870;DHT22;10097;50.862;4.696;2024-03-02T05:39:05;6.30;99.90
19870;DHT22;10097;50.862;4.696;2024-03-02T05:41:34;6.30;99.90
19870;DHT22;10097;50.862;4.696;2024-03-02T05:44:00;6.30;99.90
19870;DHT22;10097;50.862;4.696;2024-03-02T05:46:25;6.30;99.90
19870;DHT22;10097;50.862;4.696;2024-03-02T05:48:52;6.30;99.90
19870;DHT22;10097;50.862;4.696;2024-03-02T05:51:17;6.30;99.90
19870;DHT22;10097;50.862;4.696;2024-03-02T05:53:43;6.30;99.90
19870;DHT22;10097;50.862;4.696;2024-03-02T05:56:09;6.20;99.90
19870;DHT22;10097;50.862;4.696;2024-03-02T05:58:35;6.20;99.90
19870;DHT22;10097;50.862;4.696;2024-03-02T06:01:19;6.20;99.90
19870;DHT22;10097;50.862;4.696;2024-03-02T06:03:45;6.30;99.90
19870;DHT22;10097;50.862;4.696;2024-03-02T06:06:11;6.30;99.90
19870;DHT22;10097;50.862;4.696;2024-03-02T06:08:37;6.30;99.90
19870;DHT22;10097;50.862;4.696;2024-03-02T06:11:03;6.30;99.90
19870;DHT22;10097;50.862;4.696;2024-03-02T06:13:29;6.30;99.90
19870;DHT22;10097;50.862;4.696;2024-03-02T06:15:54;6.30;99.90
19870;DHT22;10097;50.862;4.696;2024-03-02T06:18:20;6.30;99.90
19870;DHT22;10097;50.862;4.696;2024-03-02T06:20:46;6.30;99.90
19870;DHT22;10097;50.862;4.696;2024-03-02T06:23:11;6.30;99.90
19870;DHT22;10097;50.862;4.696;2024-03-02T06:25:37;6.30;99.90
19870;DHT22;10097;50.862;4.696;2024-03-02T06:28:03;6.20;99.90
19870;DHT22;10097;50.862;4.696;2024-03-02T06:30:29;6.20;99.90
19870;DHT22;10097;50.862;4.696;2024-03-02T06:32:55;6.20;99.90
19870;DHT22;10097;50.862;4.696;2024-03-02T06:35:21;6.20;99.90
19870;DHT22;10097;50.862;4.696;2024-03-02T06:37:46;6.20;99.90
19870;DHT22;10097;50.862;4.696;2024-03-02T06:40:12;6.20;99.90
19870;DHT22;10097;50.862;4.696;2024-03-02T06:42:37;6.20;99.90
19870;DHT22;10097;50.862;4.696;2024-03-02T06:45:04;6.20;99.90
19870;DHT22;10097;50.862;4.696;2024-03-02T06:47:29;6.20;99.90
19870;DHT22;10097;50.862;4.696;2024-03-02T06:49:55;6.30;99.90
19870;DHT22;10097;50.862;4.696;2024-03-02T06:52:22;6.30;99.90
19870;DHT22;10097;50.862;4.696;2024-03-02T06:54:48;6.20;99.90
19870;DHT22;10097;50.862;4.696;2024-03-02T06:57:13;6.20;99.90
19870;DHT22;10097;50.862;4.696;2024-03-02T06:59:39;6.30;99.90
19870;DHT22;10097;50.862;4.696;2024-03-02T07:02:05;6.30;99.90
19870;DHT22;10097;50.862;4.696;2024-03-02T07:04:30;6.30;99.90
19870;DHT22;10097;50.862;4.696;2024-03-02T07:06:56;6.30;99.90
19870;DHT22;10097;50.862;4.696;2024-03-02T07:09:21;6.30;99.90
19870;DHT22;10097;50.862;4.696;2024-03-02T07:11:48;6.30;99.90
19870;DHT22;10097;50.862;4.696;2024-03-02T07:14:14;6.40;99.90
19870;DHT22;10097;50.862;4.696;2024-03-02T07:16:40;6.30;99.90
19870;DHT22;10097;50.862;4.696;2024-03-02T07:19:06;6.40;99.90
19870;DHT22;10097;50.862;4.696;2024-03-02T07:21:32;6.30;99.90
19870;DHT22;10097;50.862;4.696;2024-03-02T07:23:58;6.40;99.90
19870;DHT22;10097;50.862;4.696;2024-03-02T07:26:25;6.40;99.90
19870;DHT22;10097;50.862;4.696;2024-03-02T07:28:51;6.40;99.90
19870;DHT22;10097;50.862;4.696;2024-03-02T07:31:17;6.50;99.90
19870;DHT22;10097;50.862;4.696;2024-03-02T07:33:46;6.70;99.90
19870;DHT22;10097;50.862;4.696;2024-03-02T07:36:12;6.60;99.90
19870;DHT22;10097;50.862;4.696;2024-03-02T07:38:37;6.50;99.90
19870;DHT22;10097;50.862;4.696;2024-03-02T07:41:03;6.50;99.90
19870;DHT22;10097;50.862;4.696;2024-03-02T07:43:30;6.50;99.90
19870;DHT22;10097;50.862;4.696;2024-03-02T07:45:57;6.60;99.90
19870;DHT22;10097;50.862;4.696;2024-03-02T07:48:23;6.70;99.90
19870;DHT22;10097;50.862;4.696;2024-03-02T07:50:48;6.80;99.90
19870;DHT22;10097;50.862;4.696;2024-03-02T07:53:14;6.80;99.90
19870;DHT22;10097;50.862;4.696;2024-03-02T07:55:40;6.80;99.90
19870;DHT22;10097;50.862;4.696;2024-03-02T07:58:06;6.80;99.90
19870;DHT22;10097;50.862;4.696;2024-03-02T08:00:32;6.90;99.90
19870;DHT22;10097;50.862;4.696;2024-03-02T08:02:58;6.90;99.90
19870;DHT22;10097;50.862;4.696;2024-03-02T08:05:24;7.00;99.90
19870;DHT22;10097;50.862;4.696;2024-03-02T08:07:50;7.10;99.90
19870;DHT22;10097;50.862;4.696;2024-03-02T08:10:18;7.20;99.90
19870;DHT22;10097;50.862;4.696;2024-03-02T08:12:44;7.20;99.90
19870;DHT22;10097;50.862;4.696;2024-03-02T08:15:10;7.20;99.90
19870;DHT22;10097;50.862;4.696;2024-03-02T08:17:35;7.10;99.90
19870;DHT22;10097;50.862;4.696;2024-03-02T08:20:01;7.10;99.90
19870;DHT22;10097;50.862;4.696;2024-03-02T08:22:27;7.20;99.90
19870;DHT22;10097;50.862;4.696;2024-03-02T08:24:53;7.30;99.90
19870;DHT22;10097;50.862;4.696;2024-03-02T08:27:20;7.30;99.90
19870;DHT22;10097;50.862;4.696;2024-03-02T08:29:45;7.40;99.90
19870;DHT22;10097;50.862;4.696;2024-03-02T08:32:11;7.50;99.90
19870;DHT22;10097;50.862;4.696;2024-03-02T08:34:37;7.50;99.90
19870;DHT22;10097;50.862;4.696;2024-03-02T08:37:02;7.70;99.90
19870;DHT22;10097;50.862;4.696;2024-03-02T08:39:28;7.70;99.90
19870;DHT22;10097;50.862;4.696;2024-03-02T08:41:54;7.80;99.90
19870;DHT22;10097;50.862;4.696;2024-03-02T08:44:20;8.00;99.90
19870;DHT22;10097;50.862;4.696;2024-03-02T08:46:46;8.00;99.90
19870;DHT22;10097;50.862;4.696;2024-03-02T08:49:12;8.10;99.90
19870;DHT22;10097;50.862;4.696;2024-03-02T08:51:38;8.20;99.90
19870;DHT22;10097;50.862;4.696;2024-03-02T08:54:04;8.20;99.90
19870;DHT22;10097;50.862;4.696;2024-03-02T08:56:30;8.30;99.90
19870;DHT22;10097;50.862;4.696;2024-03-02T08:58:56;8.50;99.90
19870;DHT22;10097;50.862;4.696;2024-03-02T09:01:22;8.60;99.90
19870;DHT22;10097;50.862;4.696;2024-03-02T09:03:48;8.70;99.90
19870;DHT22;10097;50.862;4.696;2024-03-02T09:06:17;8.80;99.90
19870;DHT22;10097;50.862;4.696;2024-03-02T09:08:43;8.80;99.90
19870;DHT22;10097;50.862;4.696;2024-03-02T09:11:10;8.70;99.90
19870;DHT22;10097;50.862;4.696;2024-03-02T09:13:36;8.80;99.90
19870;DHT22;10097;50.862;4.696;2024-03-02T09:16:03;8.90;99.90
19870;DHT22;10097;50.862;4.696;2024-03-02T09:18:29;9.00;99.90
19870;DHT22;10097;50.862;4.696;2024-03-02T09:20:55;9.00;99.90
19870;DHT22;10097;50.862;4.696;2024-03-02T09:23:21;9.00;99.90
19870;DHT22;10097;50.862;4.696;2024-03-02T09:25:46;9.10;99.90
19870;DHT22;10097;50.862;4.696;2024-03-02T09:28:13;9.10;99.90
19870;DHT22;10097;50.862;4.696;2024-03-02T09:30:40;9.20;99.90
19870;DHT22;10097;50.862;4.696;2024-03-02T09:33:06;9.20;99.90
19870;DHT22;10097;50.862;4.696;2024-03-02T09:35:32;9.20;99.90
19870;DHT22;10097;50.862;4.696;2024-03-02T09:37:57;9.10;99.90
19870;DHT22;10097;50.862;4.696;2024-03-02T09:40:23;8.90;99.90
19870;DHT22;10097;50.862;4.696;2024-03-02T09:42:49;8.90;99.90
19870;DHT22;10097;50.862;4.696;2024-03-02T09:45:27;9.00;99.90
19870;DHT22;10097;50.862;4.696;2024-03-02T09:47:52;9.10;99.90
19870;DHT22;10097;50.862;4.696;2024-03-02T09:50:18;9.20;99.90
19870;DHT22;10097;50.862;4.696;2024-03-02T09:52:44;9.30;99.90
19870;DHT22;10097;50.862;4.696;2024-03-02T09:55:13;9.40;99.90
19870;DHT22;10097;50.862;4.696;2024-03-02T09:57:39;9.50;99.90
19870;DHT22;10097;50.862;4.696;2024-03-02T10:00:08;9.60;99.90
19870;DHT22;10097;50.862;4.696;2024-03-02T10:02:33;9.70;99.90
19870;DHT22;10097;50.862;4.696;2024-03-02T10:04:59;9.80;99.90
19870;DHT22;10097;50.862;4.696;2024-03-02T10:07:25;9.90;99.90
19870;DHT22;10097;50.862;4.696;2024-03-02T10:09:50;10.00;99.90
19870;DHT22;10097;50.862;4.696;2024-03-02T10:12:17;10.20;99.90
19870;DHT22;10097;50.862;4.696;2024-03-02T10:14:44;10.40;99.90
19870;DHT22;10097;50.862;4.696;2024-03-02T10:17:14;10.40;99.90
19870;DHT22;10097;50.862;4.696;2024-03-02T10:19:41;10.60;99.90
19870;DHT22;10097;50.862;4.696;2024-03-02T10:22:08;10.80;99.90
19870;DHT22;10097;50.862;4.696;2024-03-02T10:24:41;10.80;99.90
19870;DHT22;10097;50.862;4.696;2024-03-02T10:29:40;10.80;99.90
19870;DHT22;10097;50.862;4.696;2024-03-02T10:32:09;10.80;99.90
19870;DHT22;10097;50.862;4.696;2024-03-02T10:34:35;10.80;99.90
19870;DHT22;10097;50.862;4.696;2024-03-02T10:37:01;10.90;99.90
19870;DHT22;10097;50.862;4.696;2024-03-02T10:39:28;11.00;99.90
19870;DHT22;10097;50.862;4.696;2024-03-02T10:41:55;11.00;99.90
19870;DHT22;10097;50.862;4.696;2024-03-02T10:44:22;11.10;99.90
19870;DHT22;10097;50.862;4.696;2024-03-02T10:46:49;11.10;99.90
19870;DHT22;10097;50.862;4.696;2024-03-02T10:49:16;11.30;99.90
19870;DHT22;10097;50.862;4.696;2024-03-02T10:51:43;11.40;99.90
19870;DHT22;10097;50.862;4.696;2024-03-02T10:54:08;11.40;99.90
19870;DHT22;10097;50.862;4.696;2024-03-02T10:56:39;11.50;99.90
19870;DHT22;10097;50.862;4.696;2024-03-02T11:01:50;12.00;99.90
19870;DHT22;10097;50.862;4.696;2024-03-02T11:04:19;12.10;99.90
19870;DHT22;10097;50.862;4.696;2024-03-02T11:06:48;12.10;99.90
19870;DHT22;10097;50.862;4.696;2024-03-02T11:09:18;12.10;99.90
19870;DHT22;10097;50.862;4.696;2024-03-02T11:11:48;12.30;99.90
19870;DHT22;10097;50.862;4.696;2024-03-02T11:14:17;12.50;99.90
19870;DHT22;10097;50.862;4.696;2024-03-02T11:16:43;12.60;99.90
19870;DHT22;10097;50.862;4.696;2024-03-02T11:19:11;12.80;99.90
19870;DHT22;10097;50.862;4.696;2024-03-02T11:21:38;13.10;99.90
19870;DHT22;10097;50.862;4.696;2024-03-02T11:26:49;13.20;99.90
19870;DHT22;10097;50.862;4.696;2024-03-02T11:29:53;13.30;99.90
19870;DHT22;10097;50.862;4.696;2024-03-02T11:32:23;13.60;99.90
19870;DHT22;10097;50.862;4.696;2024-03-02T11:34:50;13.70;99.90
19870;DHT22;10097;50.862;4.696;2024-03-02T11:37:17;13.60;99.90
19870;DHT22;10097;50.862;4.696;2024-03-02T11:39:44;13.60;99.90
19870;DHT22;10097;50.862;4.696;2024-03-02T11:42:11;13.50;99.90
19870;DHT22;10097;50.862;4.696;2024-03-02T11:44:39;13.60;99.90
19870;DHT22;10097;50.862;4.696;2024-03-02T11:47:07;13.90;99.90
19870;DHT22;10097;50.862;4.696;2024-03-02T11:49:49;14.10;99.90
19870;DHT22;10097;50.862;4.696;2024-03-02T11:52:16;14.00;99.90
19870;DHT22;10097;50.862;4.696;2024-03-02T11:54:44;14.00;99.90
19870;DHT22;10097;50.862;4.696;2024-03-02T11:57:15;14.20;99.90
19870;DHT22;10097;50.862;4.696;2024-03-02T11:59:42;14.30;99.90
19870;DHT22;10097;50.862;4.696;2024-03-02T12:02:17;14.40;99.90
19870;DHT22;10097;50.862;4.696;2024-03-02T12:04:44;14.60;99.90
19870;DHT22;10097;50.862;4.696;2024-03-02T12:07:10;14.50;99.90
19870;DHT22;10097;50.862;4.696;2024-03-02T12:09:36;14.70;99.90
19870;DHT22;10097;50.862;4.696;2024-03-02T12:12:07;14.80;99.90
19870;DHT22;10097;50.862;4.696;2024-03-02T12:14:34;14.80;99.90
19870;DHT22;10097;50.862;4.696;2024-03-02T12:17:00;14.80;99.90
19870;DHT22;10097;50.862;4.696;2024-03-02T12:19:27;14.90;99.90
19870;DHT22;10097;50.862;4.696;2024-03-02T12:21:59;15.10;99.90
19870;DHT22;10097;50.862;4.696;2024-03-02T12:24:27;15.40;99.90
19870;DHT22;10097;50.862;4.696;2024-03-02T12:26:53;15.30;99.90
19870;DHT22;10097;50.862;4.696;2024-03-02T12:29:20;15.30;99.90
19870;DHT22;10097;50.862;4.696;2024-03-02T12:31:52;15.30;99.90
19870;DHT22;10097;50.862;4.696;2024-03-02T12:34:18;15.20;99.90
19870;DHT22;10097;50.862;4.696;2024-03-02T12:36:46;15.50;99.90
19870;DHT22;10097;50.862;4.696;2024-03-02T12:39:15;15.40;99.90
19870;DHT22;10097;50.862;4.696;2024-03-02T12:41:41;15.70;99.90
19870;DHT22;10097;50.862;4.696;2024-03-02T12:44:07;15.70;99.90
19870;DHT22;10097;50.862;4.696;2024-03-02T12:46:33;15.80;99.90
19870;DHT22;10097;50.862;4.696;2024-03-02T12:49:07;15.30;99.90
19870;DHT22;10097;50.862;4.696;2024-03-02T12:51:33;15.40;99.90
19870;DHT22;10097;50.862;4.696;2024-03-02T12:54:00;15.20;99.90
19870;DHT22;10097;50.862;4.696;2024-03-02T12:56:26;15.10;99.90
19870;DHT22;10097;50.862;4.696;2024-03-02T12:58:55;15.00;99.90
19870;DHT22;10097;50.862;4.696;2024-03-02T13:01:21;15.00;99.90
19870;DHT22;10097;50.862;4.696;2024-03-02T13:03:50;15.30;99.90
19870;DHT22;10097;50.862;4.696;2024-03-02T13:06:21;15.60;99.90
19870;DHT22;10097;50.862;4.696;2024-03-02T13:08:46;15.90;99.90
19870;DHT22;10097;50.862;4.696;2024-03-02T13:11:13;16.30;99.90
19870;DHT22;10097;50.862;4.696;2024-03-02T13:13:39;16.30;99.90
19870;DHT22;10097;50.862;4.696;2024-03-02T13:16:09;16.50;99.90
19870;DHT22;10097;50.862;4.696;2024-03-02T13:18:36;17.10;99.90
19870;DHT22;10097;50.862;4.696;2024-03-02T13:21:02;17.50;99.90
19870;DHT22;10097;50.862;4.696;2024-03-02T13:23:27;17.40;99.90
19870;DHT22;10097;50.862;4.696;2024-03-02T13:25:56;17.00;99.90
19870;DHT22;10097;50.862;4.696;2024-03-02T13:28:23;16.80;99.90
19870;DHT22;10097;50.862;4.696;2024-03-02T13:30:49;16.50;99.90
19870;DHT22;10097;50.862;4.696;2024-03-02T13:33:15;16.40;99.90
19870;DHT22;10097;50.862;4.696;2024-03-02T13:35:40;16.90;99.90
19870;DHT22;10097;50.862;4.696;2024-03-02T13:38:06;17.20;99.90
19870;DHT22;10097;50.862;4.696;2024-03-02T13:40:32;17.50;99.90
19870;DHT22;10097;50.862;4.696;2024-03-02T13:43:02;17.90;99.90
19870;DHT22;10097;50.862;4.696;2024-03-02T13:45:27;18.00;99.90
19870;DHT22;10097;50.862;4.696;2024-03-02T13:47:53;17.50;99.90
19870;DHT22;10097;50.862;4.696;2024-03-02T13:50:19;17.00;99.90
19870;DHT22;10097;50.862;4.696;2024-03-02T13:52:45;16.90;99.90
19870;DHT22;10097;50.862;4.696;2024-03-02T13:55:11;16.90;99.90
19870;DHT22;10097;50.862;4.696;2024-03-02T13:57:36;16.90;99.90
19870;DHT22;10097;50.862;4.696;2024-03-02T14:00:02;17.00;99.90
19870;DHT22;10097;50.862;4.696;2024-03-02T14:02:29;16.80;99.90
19870;DHT22;10097;50.862;4.696;2024-03-02T14:04:54;16.50;99.90
19870;DHT22;10097;50.862;4.696;2024-03-02T14:07:20;16.40;99.90
19870;DHT22;10097;50.862;4.696;2024-03-02T14:09:46;16.30;99.90
19870;DHT22;10097;50.862;4.696;2024-03-02T14:12:12;16.10;99.90
19870;DHT22;10097;50.862;4.696;2024-03-02T14:14:38;16.20;99.90
19870;DHT22;10097;50.862;4.696;2024-03-02T14:17:04;16.20;99.90
19870;DHT22;10097;50.862;4.696;2024-03-02T14:19:32;16.30;99.90
19870;DHT22;10097;50.862;4.696;2024-03-02T14:21:58;16.00;99.90
19870;DHT22;10097;50.862;4.696;2024-03-02T14:24:24;16.00;99.90
19870;DHT22;10097;50.862;4.696;2024-03-02T14:26:54;15.90;99.90
19870;DHT22;10097;50.862;4.696;2024-03-02T14:29:20;16.00;99.90
19870;DHT22;10097;50.862;4.696;2024-03-02T14:31:45;16.20;99.90
19870;DHT22;10097;50.862;4.696;2024-03-02T14:34:14;16.00;99.90
19870;DHT22;10097;50.862;4.696;2024-03-02T14:36:40;15.90;99.90
19870;DHT22;10097;50.862;4.696;2024-03-02T14:39:06;15.60;99.90
19870;DHT22;10097;50.862;4.696;2024-03-02T14:41:35;15.30;99.90
19870;DHT22;10097;50.862;4.696;2024-03-02T14:44:01;15.20;99.90
19870;DHT22;10097;50.862;4.696;2024-03-02T14:46:27;15.30;99.90
19870;DHT22;10097;50.862;4.696;2024-03-02T14:48:53;15.40;99.90
19870;DHT22;10097;50.862;4.696;2024-03-02T14:51:18;15.60;99.90
19870;DHT22;10097;50.862;4.696;2024-03-02T14:53:44;15.70;99.90
19870;DHT22;10097;50.862;4.696;2024-03-02T14:56:10;15.70;99.90
19870;DHT22;10097;50.862;4.696;2024-03-02T14:58:36;15.80;99.90
19870;DHT22;10097;50.862;4.696;2024-03-02T15:01:03;15.70;99.90
19870;DHT22;10097;50.862;4.696;2024-03-02T15:03:30;15.50;99.90
19870;DHT22;10097;50.862;4.696;2024-03-02T15:05:55;15.40;99.90
19870;DHT22;10097;50.862;4.696;2024-03-02T15:08:22;15.20;99.90
19870;DHT22;10097;50.862;4.696;2024-03-02T15:10:47;15.10;99.90
19870;DHT22;10097;50.862;4.696;2024-03-02T15:13:13;14.90;99.90
19870;DHT22;10097;50.862;4.696;2024-03-02T15:15:39;14.70;99.90
19870;DHT22;10097;50.862;4.696;2024-03-02T15:18:05;14.80;99.90
19870;DHT22;10097;50.862;4.696;2024-03-02T15:20:30;14.70;99.90
19870;DHT22;10097;50.862;4.696;2024-03-02T15:22:56;14.60;99.90
19870;DHT22;10097;50.862;4.696;2024-03-02T15:25:22;14.50;99.90
19870;DHT22;10097;50.862;4.696;2024-03-02T15:27:47;14.50;99.90
19870;DHT22;10097;50.862;4.696;2024-03-02T15:30:13;14.40;99.90
19870;DHT22;10097;50.862;4.696;2024-03-02T15:32:39;14.40;99.90
19870;DHT22;10097;50.862;4.696;2024-03-02T15:35:05;14.40;99.90
19870;DHT22;10097;50.862;4.696;2024-03-02T15:37:31;14.40;99.90
19870;DHT22;10097;50.862;4.696;2024-03-02T15:39:57;14.40;99.90
19870;DHT22;10097;50.862;4.696;2024-03-02T15:42:24;14.40;99.90
19870;DHT22;10097;50.862;4.696;2024-03-02T15:44:49;14.50;99.90
19870;DHT22;10097;50.862;4.696;2024-03-02T15:47:15;14.60;99.90
19870;DHT22;10097;50.862;4.696;2024-03-02T15:49:41;14.60;99.90
19870;DHT22;10097;50.862;4.696;2024-03-02T15:52:06;14.60;99.90